sensor_id;sensor_type;location;lat;lon;timestamp;noise_LAeq;noise_LA_min;noise_LA_max;noise_LA01;noise_LA95
37279;Laerm;7458;49.002;8.472;2023-11-19T00:00:26;95.76;47.74;101.30;;
37279;Laerm;7458;49.002;8.472;2023-11-19T00:02:52;95.35;49.94;101.06;;
37279;Laerm;7458;49.002;8.472;2023-11-19T00:05:19;94.08;48.21;100.54;;
37279;Laerm;7458;49.002;8.472;2023-11-19T00:07:45;93.11;50.40;100.11;;
37279;Laerm;7458;49.002;8.472;2023-11-19T00:10:13;92.82;53.17;99.61;;
37279;Laerm;7458;49.002;8.472;2023-11-19T00:12:45;92.23;49.89;99.96;;
37279;Laerm;7458;49.002;8.472;2023-11-19T00:15:13;91.42;50.79;98.56;;
37279;Laerm;7458;49.002;8.472;2023-11-19T00:17:44;90.98;48.25;98.50;;
37279;Laerm;7458;49.002;8.472;2023-11-19T00:20:15;90.02;52.12;97.68;;
37279;Laerm;7458;49.002;8.472;2023-11-19T00:22:42;89.29;50.38;97.26;;
37279;Laerm;7458;49.002;8.472;2023-11-19T00:25:09;90.08;47.32;97.71;;
37279;Laerm;7458;49.002;8.472;2023-11-19T00:27:36;90.12;44.94;97.55;;
37279;Laerm;7458;49.002;8.472;2023-11-19T00:30:04;90.22;44.80;97.54;;
37279;Laerm;7458;49.002;8.472;2023-11-19T00:32:32;89.93;43.72;98.67;;
37279;Laerm;7458;49.002;8.472;2023-11-19T00:34:58;89.72;44.80;97.14;;
37279;Laerm;7458;49.002;8.472;2023-11-19T00:37:23;89.18;52.09;97.66;;
37279;Laerm;7458;49.002;8.472;2023-11-19T00:39:50;89.10;48.90;97.29;;
37279;Laerm;7458;49.002;8.472;2023-11-19T00:42:17;89.17;47.34;97.29;;
37279;Laerm;7458;49.002;8.472;2023-11-19T00:44:43;89.04;52.41;96.88;;
37279;Laerm;7458;49.002;8.472;2023-11-19T00:47:09;89.15;51.56;97.27;;
37279;Laerm;7458;49.002;8.472;2023-11-19T00:49:36;89.15;49.49;97.66;;
37279;Laerm;7458;49.002;8.472;2023-11-19T00:52:01;88.86;50.69;96.56;;
37279;Laerm;7458;49.002;8.472;2023-11-19T00:54:28;88.99;48.00;96.81;;
37279;Laerm;7458;49.002;8.472;2023-11-19T00:56:54;89.29;45.94;99.47;;
37279;Laerm;7458;49.002;8.472;2023-11-19T00:59:21;89.36;45.69;98.11;;
37279;Laerm;7458;49.002;8.472;2023-11-19T01:01:47;89.24;44.76;97.28;;
37279;Laerm;7458;49.002;8.472;2023-11-19T01:04:18;89.45;43.63;97.81;;
37279;Laerm;7458;49.002;8.472;2023-11-19T01:06:45;89.37;42.35;97.91;;
37279;Laerm;7458;49.002;8.472;2023-11-19T01:09:11;89.27;43.39;98.29;;
37279;Laerm;7458;49.002;8.472;2023-11-19T01:11:37;89.42;42.98;98.59;;
37279;Laerm;7458;49.002;8.472;2023-11-19T01:14:03;89.21;44.11;97.31;;
37279;Laerm;7458;49.002;8.472;2023-11-19T01:16:30;89.36;43.14;98.07;;
37279;Laerm;7458;49.002;8.472;2023-11-19T01:18:56;89.31;42.35;97.58;;
37279;Laerm;7458;49.002;8.472;2023-11-19T01:21:22;89.35;42.09;96.87;;
37279;Laerm;7458;49.002;8.472;2023-11-19T01:23:48;89.34;44.07;96.97;;
37279;Laerm;7458;49.002;8.472;2023-11-19T01:26:14;89.40;42.09;98.23;;
37279;Laerm;7458;49.002;8.472;2023-11-19T01:28:41;89.06;43.86;97.99;;
37279;Laerm;7458;49.002;8.472;2023-11-19T01:31:11;89.35;44.39;97.47;;
37279;Laerm;7458;49.002;8.472;2023-11-19T01:33:37;89.25;44.27;97.55;;
37279;Laerm;7458;49.002;8.472;2023-11-19T01:36:03;89.36;43.81;97.30;;
37279;Laerm;7458;49.002;8.472;2023-11-19T01:38:30;89.44;42.88;97.11;;
37279;Laerm;7458;49.002;8.472;2023-11-19T01:40:59;89.28;44.03;97.90;;
37279;Laerm;7458;49.002;8.472;2023-11-19T01:43:39;89.20;46.25;97.13;;
37279;Laerm;7458;49.002;8.472;2023-11-19T01:46:08;89.43;44.58;97.56;;
37279;Laerm;7458;49.002;8.472;2023-11-19T01:48:38;89.47;43.99;97.29;;
37279;Laerm;7458;49.002;8.472;2023-11-19T01:51:07;89.51;41.61;97.30;;
37279;Laerm;7458;49.002;8.472;2023-11-19T01:53:36;89.50;42.35;97.23;;
37279;Laerm;7458;49.002;8.472;2023-11-19T01:56:06;89.62;42.03;97.28;;
37279;Laerm;7458;49.002;8.472;2023-11-19T01:58:36;89.55;43.19;98.01;;
37279;Laerm;7458;49.002;8.472;2023-11-19T02:01:02;89.56;44.19;97.42;;
37279;Laerm;7458;49.002;8.472;2023-11-19T02:03:32;89.86;44.58;97.23;;
37279;Laerm;7458;49.002;8.472;2023-11-19T02:05:59;89.50;46.28;98.22;;
37279;Laerm;7458;49.002;8.472;2023-11-19T02:08:26;89.69;46.59;97.35;;
37279;Laerm;7458;49.002;8.472;2023-11-19T02:10:52;89.85;46.20;97.82;;
37279;Laerm;7458;49.002;8.472;2023-11-19T02:13:21;89.97;43.34;97.91;;
37279;Laerm;7458;49.002;8.472;2023-11-19T02:15:47;90.13;43.39;97.42;;
37279;Laerm;7458;49.002;8.472;2023-11-19T02:18:27;90.24;42.76;98.02;;
37279;Laerm;7458;49.002;8.472;2023-11-19T02:20:58;90.40;42.53;98.57;;
37279;Laerm;7458;49.002;8.472;2023-11-19T02:23:27;90.23;41.82;98.37;;
37279;Laerm;7458;49.002;8.472;2023-11-19T02:28:32;90.17;42.09;97.57;;
37279;Laerm;7458;49.002;8.472;2023-11-19T02:30:58;90.22;41.53;98.37;;
37279;Laerm;7458;49.002;8.472;2023-11-19T02:33:25;90.38;41.68;97.99;;
37279;Laerm;7458;49.002;8.472;2023-11-19T02:35:50;90.40;42.82;97.43;;
37279;Laerm;7458;49.002;8.472;2023-11-19T02:38:17;90.30;42.22;97.67;;
37279;Laerm;7458;49.002;8.472;2023-11-19T02:40:43;90.40;42.03;97.50;;
37279;Laerm;7458;49.002;8.472;2023-11-19T02:43:09;90.28;42.98;98.24;;
37279;Laerm;7458;49.002;8.472;2023-11-19T02:45:36;90.57;42.22;98.36;;
37279;Laerm;7458;49.002;8.472;2023-11-19T02:48:02;90.38;42.09;97.98;;
37279;Laerm;7458;49.002;8.472;2023-11-19T02:50:28;90.43;42.76;98.26;;
37279;Laerm;7458;49.002;8.472;2023-11-19T02:52:55;90.53;41.61;97.99;;
37279;Laerm;7458;49.002;8.472;2023-11-19T02:55:22;90.53;42.22;98.17;;
37279;Laerm;7458;49.002;8.472;2023-11-19T02:57:50;90.63;41.30;97.93;;
37279;Laerm;7458;49.002;8.472;2023-11-19T03:00:22;90.52;42.03;98.28;;
37279;Laerm;7458;49.002;8.472;2023-11-19T03:02:53;90.74;41.96;98.59;;
37279;Laerm;7458;49.002;8.472;2023-11-19T03:05:27;90.71;42.93;98.09;;
37279;Laerm;7458;49.002;8.472;2023-11-19T03:07:56;90.81;42.41;98.51;;
37279;Laerm;7458;49.002;8.472;2023-11-19T03:10:23;90.71;40.80;98.74;;
37279;Laerm;7458;49.002;8.472;2023-11-19T03:12:49;90.83;40.53;98.65;;
37279;Laerm;7458;49.002;8.472;2023-11-19T03:15:16;90.81;40.98;98.51;;
37279;Laerm;7458;49.002;8.472;2023-11-19T03:17:42;91.06;40.53;98.98;;
37279;Laerm;7458;49.002;8.472;2023-11-19T03:20:11;91.02;41.14;98.22;;
37279;Laerm;7458;49.002;8.472;2023-11-19T03:22:41;91.08;41.30;97.87;;
37279;Laerm;7458;49.002;8.472;2023-11-19T03:25:08;90.95;41.22;98.23;;
37279;Laerm;7458;49.002;8.472;2023-11-19T03:27:37;90.99;41.75;97.86;;
37279;Laerm;7458;49.002;8.472;2023-11-19T03:30:10;91.01;41.61;97.94;;
37279;Laerm;7458;49.002;8.472;2023-11-19T03:32:36;90.96;42.53;98.59;;
37279;Laerm;7458;49.002;8.472;2023-11-19T03:35:03;91.08;42.16;98.54;;
37279;Laerm;7458;49.002;8.472;2023-11-19T03:37:35;91.09;42.29;98.51;;
37279;Laerm;7458;49.002;8.472;2023-11-19T03:40:02;90.85;41.89;98.40;;
37279;Laerm;7458;49.002;8.472;2023-11-19T03:42:29;90.93;41.06;97.69;;
37279;Laerm;7458;49.002;8.472;2023-11-19T03:44:58;91.01;41.30;98.36;;
37279;Laerm;7458;49.002;8.472;2023-11-19T03:47:25;90.84;40.80;98.97;;
37279;Laerm;7458;49.002;8.472;2023-11-19T03:49:51;90.99;41.30;99.84;;
37279;Laerm;7458;49.002;8.472;2023-11-19T03:52:18;90.85;41.75;97.73;;
37279;Laerm;7458;49.002;8.472;2023-11-19T03:54:45;91.13;41.38;98.70;;
37279;Laerm;7458;49.002;8.472;2023-11-19T03:57:12;90.97;40.89;98.40;;
37279;Laerm;7458;49.002;8.472;2023-11-19T03:59:39;90.94;41.14;98.97;;
37279;Laerm;7458;49.002;8.472;2023-11-19T04:02:05;91.02;41.75;98.43;;
37279;Laerm;7458;49.002;8.472;2023-11-19T04:04:31;91.03;41.75;98.44;;
37279;Laerm;7458;49.002;8.472;2023-11-19T04:06:57;90.95;42.53;98.91;;
37279;Laerm;7458;49.002;8.472;2023-11-19T04:09:24;91.04;42.22;98.24;;
37279;Laerm;7458;49.002;8.472;2023-11-19T04:11:50;90.98;41.38;98.35;;
37279;Laerm;7458;49.002;8.472;2023-11-19T04:14:16;91.02;42.29;98.23;;
37279;Laerm;7458;49.002;8.472;2023-11-19T04:16:44;91.04;41.46;97.58;;
37279;Laerm;7458;49.002;8.472;2023-11-19T04:19:11;90.87;41.68;98.25;;
37279;Laerm;7458;49.002;8.472;2023-11-19T04:21:40;90.96;41.68;98.70;;
37279;Laerm;7458;49.002;8.472;2023-11-19T04:24:09;91.00;41.61;98.22;;
37279;Laerm;7458;49.002;8.472;2023-11-19T04:26:44;91.00;41.22;98.79;;
37279;Laerm;7458;49.002;8.472;2023-11-19T04:29:15;90.94;42.29;98.18;;
37279;Laerm;7458;49.002;8.472;2023-11-19T04:31:45;91.08;41.14;97.75;;
37279;Laerm;7458;49.002;8.472;2023-11-19T04:34:12;91.06;42.16;98.07;;
37279;Laerm;7458;49.002;8.472;2023-11-19T04:36:39;91.06;41.82;98.66;;
37279;Laerm;7458;49.002;8.472;2023-11-19T04:39:05;90.83;41.46;98.42;;
37279;Laerm;7458;49.002;8.472;2023-11-19T04:41:51;90.97;42.29;98.81;;
37279;Laerm;7458;49.002;8.472;2023-11-19T04:44:20;91.13;41.06;98.34;;
37279;Laerm;7458;49.002;8.472;2023-11-19T04:46:46;90.92;42.59;98.30;;
37279;Laerm;7458;49.002;8.472;2023-11-19T04:49:13;91.10;41.30;98.39;;
37279;Laerm;7458;49.002;8.472;2023-11-19T04:51:41;91.31;41.22;98.35;;
37279;Laerm;7458;49.002;8.472;2023-11-19T04:54:10;91.19;41.82;98.23;;
37279;Laerm;7458;49.002;8.472;2023-11-19T04:56:37;91.04;41.96;98.75;;
37279;Laerm;7458;49.002;8.472;2023-11-19T04:59:03;91.33;42.47;98.86;;
37279;Laerm;7458;49.002;8.472;2023-11-19T05:01:34;91.13;41.68;98.77;;
37279;Laerm;7458;49.002;8.472;2023-11-19T05:04:00;90.87;41.46;98.69;;
37279;Laerm;7458;49.002;8.472;2023-11-19T05:06:31;90.95;43.04;98.41;;
37279;Laerm;7458;49.002;8.472;2023-11-19T05:09:00;91.12;42.88;98.55;;
37279;Laerm;7458;49.002;8.472;2023-11-19T05:11:31;91.49;41.46;98.95;;
37279;Laerm;7458;49.002;8.472;2023-11-19T05:13:56;91.26;43.99;98.12;;
37279;Laerm;7458;49.002;8.472;2023-11-19T05:16:23;91.38;43.86;98.72;;
37279;Laerm;7458;49.002;8.472;2023-11-19T05:18:49;91.49;42.16;99.01;;
37279;Laerm;7458;49.002;8.472;2023-11-19T05:21:15;91.63;43.34;98.68;;
37279;Laerm;7458;49.002;8.472;2023-11-19T05:23:42;91.34;41.96;98.98;;
37279;Laerm;7458;49.002;8.472;2023-11-19T05:26:08;91.48;42.03;98.42;;
37279;Laerm;7458;49.002;8.472;2023-11-19T05:28:34;91.44;42.35;98.37;;
37279;Laerm;7458;49.002;8.472;2023-11-19T05:31:01;91.79;45.01;99.03;;
37279;Laerm;7458;49.002;8.472;2023-11-19T05:33:27;91.75;43.19;98.63;;
37279;Laerm;7458;49.002;8.472;2023-11-19T05:35:53;91.88;44.23;99.33;;
37279;Laerm;7458;49.002;8.472;2023-11-19T05:38:19;91.89;44.83;98.51;;
37279;Laerm;7458;49.002;8.472;2023-11-19T05:40:46;91.90;44.07;99.06;;
37279;Laerm;7458;49.002;8.472;2023-11-19T05:43:14;92.11;44.65;98.61;;
37279;Laerm;7458;49.002;8.472;2023-11-19T05:45:42;91.89;43.44;98.95;;
37279;Laerm;7458;49.002;8.472;2023-11-19T05:48:09;92.16;43.81;98.69;;
37279;Laerm;7458;49.002;8.472;2023-11-19T05:50:35;91.75;42.41;99.13;;
37279;Laerm;7458;49.002;8.472;2023-11-19T05:53:01;91.75;43.14;98.39;;
37279;Laerm;7458;49.002;8.472;2023-11-19T05:55:27;91.89;43.94;99.39;;
37279;Laerm;7458;49.002;8.472;2023-11-19T05:57:54;92.07;43.04;98.90;;
37279;Laerm;7458;49.002;8.472;2023-11-19T06:00:20;92.07;44.58;98.69;;
37279;Laerm;7458;49.002;8.472;2023-11-19T06:02:46;92.01;44.54;99.19;;
37279;Laerm;7458;49.002;8.472;2023-11-19T06:05:13;92.03;42.16;99.41;;
37279;Laerm;7458;49.002;8.472;2023-11-19T06:07:39;91.68;44.19;98.29;;
37279;Laerm;7458;49.002;8.472;2023-11-19T06:10:07;92.23;43.44;98.93;;
37279;Laerm;7458;49.002;8.472;2023-11-19T06:12:35;92.15;43.49;98.28;;
37279;Laerm;7458;49.002;8.472;2023-11-19T06:15:05;92.19;42.88;99.44;;
37279;Laerm;7458;49.002;8.472;2023-11-19T06:17:32;92.66;43.04;99.20;;
37279;Laerm;7458;49.002;8.472;2023-11-19T06:19:58;92.89;47.10;98.92;;
37279;Laerm;7458;49.002;8.472;2023-11-19T06:22:24;92.43;46.33;99.81;;
37279;Laerm;7458;49.002;8.472;2023-11-19T06:24:50;92.32;43.86;98.95;;
37279;Laerm;7458;49.002;8.472;2023-11-19T06:27:16;92.66;45.89;99.34;;
37279;Laerm;7458;49.002;8.472;2023-11-19T06:29:42;92.73;45.04;99.64;;
37279;Laerm;7458;49.002;8.472;2023-11-19T06:32:08;92.48;43.54;99.86;;
37279;Laerm;7458;49.002;8.472;2023-11-19T06:34:35;92.55;44.27;99.04;;
37279;Laerm;7458;49.002;8.472;2023-11-19T06:37:01;92.27;48.91;98.95;;
37279;Laerm;7458;49.002;8.472;2023-11-19T06:39:30;91.86;43.19;98.61;;
37279;Laerm;7458;49.002;8.472;2023-11-19T06:41:56;91.95;43.49;99.00;;
37279;Laerm;7458;49.002;8.472;2023-11-19T06:44:22;92.25;46.15;99.09;;
37279;Laerm;7458;49.002;8.472;2023-11-19T06:46:48;91.97;44.11;99.97;;
37279;Laerm;7458;49.002;8.472;2023-11-19T06:49:14;92.23;43.63;98.76;;
37279;Laerm;7458;49.002;8.472;2023-11-19T06:51:43;92.28;44.31;99.80;;
37279;Laerm;7458;49.002;8.472;2023-11-19T06:54:09;92.71;43.81;98.82;;
37279;Laerm;7458;49.002;8.472;2023-11-19T06:56:35;92.40;52.32;99.02;;
37279;Laerm;7458;49.002;8.472;2023-11-19T06:59:02;92.16;42.93;99.82;;
37279;Laerm;7458;49.002;8.472;2023-11-19T07:01:29;92.76;46.38;99.71;;
37279;Laerm;7458;49.002;8.472;2023-11-19T07:04:00;92.43;43.99;99.15;;
37279;Laerm;7458;49.002;8.472;2023-11-19T07:06:33;92.25;45.86;99.21;;
37279;Laerm;7458;49.002;8.472;2023-11-19T07:09:00;92.36;44.15;99.44;;
37279;Laerm;7458;49.002;8.472;2023-11-19T07:11:43;91.91;45.48;98.69;;
37279;Laerm;7458;49.002;8.472;2023-11-19T07:14:12;92.19;44.19;99.24;;
37279;Laerm;7458;49.002;8.472;2023-11-19T07:16:38;92.29;44.69;99.24;;
37279;Laerm;7458;49.002;8.472;2023-11-19T07:19:05;92.30;43.90;99.78;;
37279;Laerm;7458;49.002;8.472;2023-11-19T07:21:32;92.04;44.80;99.24;;
37279;Laerm;7458;49.002;8.472;2023-11-19T07:24:03;91.91;44.11;99.09;;
37279;Laerm;7458;49.002;8.472;2023-11-19T07:26:30;91.90;42.41;99.06;;
37279;Laerm;7458;49.002;8.472;2023-11-19T07:28:56;91.84;43.34;98.55;;
37279;Laerm;7458;49.002;8.472;2023-11-19T07:31:23;92.47;44.39;99.17;;
37279;Laerm;7458;49.002;8.472;2023-11-19T07:33:49;92.83;44.23;99.23;;
37279;Laerm;7458;49.002;8.472;2023-11-19T07:36:16;93.55;47.36;99.86;;
37279;Laerm;7458;49.002;8.472;2023-11-19T07:38:42;94.08;49.27;100.44;;
37279;Laerm;7458;49.002;8.472;2023-11-19T07:41:08;94.24;46.52;101.38;;
37279;Laerm;7458;49.002;8.472;2023-11-19T07:43:39;95.78;45.54;101.91;;
37279;Laerm;7458;49.002;8.472;2023-11-19T07:46:05;94.54;43.34;100.88;;
37279;Laerm;7458;49.002;8.472;2023-11-19T07:48:33;93.26;42.09;101.14;;
37279;Laerm;7458;49.002;8.472;2023-11-19T07:51:00;70.71;42.16;88.60;;
37279;Laerm;7458;49.002;8.472;2023-11-19T07:53:27;66.63;42.47;86.82;;
37279;Laerm;7458;49.002;8.472;2023-11-19T07:55:53;56.99;42.93;75.53;;
37279;Laerm;7458;49.002;8.472;2023-11-19T07:58:20;59.35;42.41;82.92;;
37279;Laerm;7458;49.002;8.472;2023-11-19T08:00:46;60.43;42.35;83.09;;
37279;Laerm;7458;49.002;8.472;2023-11-19T08:03:12;57.17;42.09;76.77;;
37279;Laerm;7458;49.002;8.472;2023-11-19T08:05:38;58.09;43.24;70.97;;
37279;Laerm;7458;49.002;8.472;2023-11-19T08:08:05;68.46;45.66;87.94;;
37279;Laerm;7458;49.002;8.472;2023-11-19T08:10:30;92.42;43.14;101.12;;
37279;Laerm;7458;49.002;8.472;2023-11-19T08:12:59;81.70;42.95;97.63;;
37279;Laerm;7458;49.002;8.472;2023-11-19T08:15:25;78.78;43.09;94.86;;
37279;Laerm;7458;49.002;8.472;2023-11-19T08:17:51;84.66;43.04;100.28;;
37279;Laerm;7458;49.002;8.472;2023-11-19T08:20:17;82.70;42.22;98.26;;
37279;Laerm;7458;49.002;8.472;2023-11-19T08:22:43;87.08;43.24;100.09;;
37279;Laerm;7458;49.002;8.472;2023-11-19T08:25:09;70.32;42.88;90.75;;
37279;Laerm;7458;49.002;8.472;2023-11-19T08:27:36;52.08;42.71;70.21;;
37279;Laerm;7458;49.002;8.472;2023-11-19T08:30:02;59.46;42.95;74.35;;
37279;Laerm;7458;49.002;8.472;2023-11-19T08:32:28;56.87;43.34;71.20;;
37279;Laerm;7458;49.002;8.472;2023-11-19T08:34:54;52.57;43.54;70.43;;
37279;Laerm;7458;49.002;8.472;2023-11-19T08:37:21;58.92;44.07;72.27;;
37279;Laerm;7458;49.002;8.472;2023-11-19T08:39:48;58.27;43.72;74.21;;
37279;Laerm;7458;49.002;8.472;2023-11-19T08:42:15;55.31;42.71;71.26;;
37279;Laerm;7458;49.002;8.472;2023-11-19T08:44:41;59.94;43.54;75.38;;
37279;Laerm;7458;49.002;8.472;2023-11-19T08:47:11;51.89;43.24;71.07;;
37279;Laerm;7458;49.002;8.472;2023-11-19T08:49:37;56.13;42.59;70.64;;
37279;Laerm;7458;49.002;8.472;2023-11-19T08:52:03;60.63;45.72;73.27;;
37279;Laerm;7458;49.002;8.472;2023-11-19T08:54:29;60.25;46.02;75.78;;
37279;Laerm;7458;49.002;8.472;2023-11-19T08:56:56;67.09;46.33;90.51;;
37279;Laerm;7458;49.002;8.472;2023-11-19T08:59:22;58.00;45.39;71.47;;
37279;Laerm;7458;49.002;8.472;2023-11-19T09:01:48;58.76;44.51;72.75;;
37279;Laerm;7458;49.002;8.472;2023-11-19T09:04:14;56.34;44.27;72.33;;
37279;Laerm;7458;49.002;8.472;2023-11-19T09:06:41;59.19;42.71;73.68;;
37279;Laerm;7458;49.002;8.472;2023-11-19T09:09:08;57.87;43.81;70.68;;
37279;Laerm;7458;49.002;8.472;2023-11-19T09:11:35;57.59;44.07;71.47;;
37279;Laerm;7458;49.002;8.472;2023-11-19T09:14:02;59.15;44.03;74.20;;
37279;Laerm;7458;49.002;8.472;2023-11-19T09:16:28;59.79;44.27;76.99;;
37279;Laerm;7458;49.002;8.472;2023-11-19T09:18:55;57.79;43.94;75.46;;
37279;Laerm;7458;49.002;8.472;2023-11-19T09:21:21;60.98;44.35;75.95;;
37279;Laerm;7458;49.002;8.472;2023-11-19T09:23:47;56.75;43.04;70.90;;
37279;Laerm;7458;49.002;8.472;2023-11-19T09:26:18;53.25;43.19;70.32;;
37279;Laerm;7458;49.002;8.472;2023-11-19T09:28:44;55.10;43.39;70.44;;
37279;Laerm;7458;49.002;8.472;2023-11-19T09:31:17;59.26;43.58;73.62;;
37279;Laerm;7458;49.002;8.472;2023-11-19T09:33:43;58.58;43.68;73.30;;
37279;Laerm;7458;49.002;8.472;2023-11-19T09:36:11;55.78;43.58;70.44;;
37279;Laerm;7458;49.002;8.472;2023-11-19T09:38:40;58.67;44.03;75.98;;
37279;Laerm;7458;49.002;8.472;2023-11-19T09:41:06;56.81;44.47;70.07;;
37279;Laerm;7458;49.002;8.472;2023-11-19T09:43:35;60.18;44.65;74.75;;
37279;Laerm;7458;49.002;8.472;2023-11-19T09:46:06;57.52;44.15;72.06;;
37279;Laerm;7458;49.002;8.472;2023-11-19T09:48:36;58.65;44.39;72.73;;
37279;Laerm;7458;49.002;8.472;2023-11-19T09:51:07;52.17;44.31;70.23;;
37279;Laerm;7458;49.002;8.472;2023-11-19T09:53:37;57.71;45.54;70.79;;
37279;Laerm;7458;49.002;8.472;2023-11-19T09:56:07;57.12;45.45;75.26;;
37279;Laerm;7458;49.002;8.472;2023-11-19T09:58:37;57.05;43.94;70.97;;
37279;Laerm;7458;49.002;8.472;2023-11-19T10:01:03;57.07;43.94;73.72;;
37279;Laerm;7458;49.002;8.472;2023-11-19T10:03:34;57.10;43.93;70.27;;
37279;Laerm;7458;49.002;8.472;2023-11-19T10:06:04;56.53;44.15;73.05;;
37279;Laerm;7458;49.002;8.472;2023-11-19T10:08:33;51.83;43.81;70.26;;
37279;Laerm;7458;49.002;8.472;2023-11-19T10:10:59;53.96;43.72;72.82;;
37279;Laerm;7458;49.002;8.472;2023-11-19T10:13:29;54.72;43.94;69.92;;
37279;Laerm;7458;49.002;8.472;2023-11-19T10:15:56;52.10;43.63;70.35;;
37279;Laerm;7458;49.002;8.472;2023-11-19T10:18:27;52.80;44.03;70.03;;
37279;Laerm;7458;49.002;8.472;2023-11-19T10:20:53;47.23;43.63;60.97;;
37279;Laerm;7458;49.002;8.472;2023-11-19T10:23:21;52.74;43.14;68.30;;
37279;Laerm;7458;49.002;8.472;2023-11-19T10:25:47;55.20;44.45;72.15;;
37279;Laerm;7458;49.002;8.472;2023-11-19T10:28:15;53.37;44.43;71.78;;
37279;Laerm;7458;49.002;8.472;2023-11-19T10:30:42;52.61;43.54;70.00;;
37279;Laerm;7458;49.002;8.472;2023-11-19T10:33:13;53.29;43.68;72.43;;
37279;Laerm;7458;49.002;8.472;2023-11-19T10:35:57;48.27;43.68;58.59;;
37279;Laerm;7458;49.002;8.472;2023-11-19T10:38:25;49.58;44.31;59.50;;
37279;Laerm;7458;49.002;8.472;2023-11-19T10:40:52;51.44;43.72;68.69;;
37279;Laerm;7458;49.002;8.472;2023-11-19T10:43:19;58.01;44.80;73.47;;
37279;Laerm;7458;49.002;8.472;2023-11-19T10:45:45;52.05;43.14;68.72;;
37279;Laerm;7458;49.002;8.472;2023-11-19T10:48:12;54.94;44.11;69.92;;
37279;Laerm;7458;49.002;8.472;2023-11-19T10:50:41;56.93;43.68;72.07;;
37279;Laerm;7458;49.002;8.472;2023-11-19T10:53:10;54.75;44.35;71.61;;
37279;Laerm;7458;49.002;8.472;2023-11-19T10:55:39;55.95;44.15;75.45;;
37279;Laerm;7458;49.002;8.472;2023-11-19T10:58:09;55.81;44.54;70.47;;
37279;Laerm;7458;49.002;8.472;2023-11-19T11:00:48;57.44;43.68;75.35;;
37279;Laerm;7458;49.002;8.472;2023-11-19T11:03:20;57.29;43.86;73.13;;
37279;Laerm;7458;49.002;8.472;2023-11-19T11:05:51;55.98;43.39;72.61;;
37279;Laerm;7458;49.002;8.472;2023-11-19T11:08:19;51.25;43.14;69.45;;
37279;Laerm;7458;49.002;8.472;2023-11-19T11:10:55;51.66;43.72;68.26;;
37279;Laerm;7458;49.002;8.472;2023-11-19T11:13:25;55.56;44.62;70.76;;
37279;Laerm;7458;49.002;8.472;2023-11-19T11:15:56;51.67;44.19;66.53;;
37279;Laerm;7458;49.002;8.472;2023-11-19T11:18:24;56.54;44.39;73.88;;
37279;Laerm;7458;49.002;8.472;2023-11-19T11:20:57;65.48;44.19;86.33;;
37279;Laerm;7458;49.002;8.472;2023-11-19T11:29:42;54.26;43.34;70.91;;
37279;Laerm;7458;49.002;8.472;2023-11-19T11:32:35;56.43;43.94;71.18;;
37279;Laerm;7458;49.002;8.472;2023-11-19T11:35:08;58.09;44.43;75.00;;
37279;Laerm;7458;49.002;8.472;2023-11-19T11:37:46;56.98;44.03;72.92;;
37279;Laerm;7458;49.002;8.472;2023-11-19T11:40:17;57.53;43.04;74.48;;
37279;Laerm;7458;49.002;8.472;2023-11-19T11:42:48;49.73;44.23;63.22;;
37279;Laerm;7458;49.002;8.472;2023-11-19T11:45:16;55.64;44.51;68.87;;
37279;Laerm;7458;49.002;8.472;2023-11-19T11:50:18;57.55;44.76;72.20;;
37279;Laerm;7458;49.002;8.472;2023-11-19T11:55:28;56.35;43.86;72.64;;
37279;Laerm;7458;49.002;8.472;2023-11-19T11:57:56;52.18;44.80;71.66;;
37279;Laerm;7458;49.002;8.472;2023-11-19T12:03:00;56.70;43.58;74.56;;
37279;Laerm;7458;49.002;8.472;2023-11-19T12:05:27;55.15;43.49;73.04;;
37279;Laerm;7458;49.002;8.472;2023-11-19T12:08:05;53.96;44.69;68.74;;
37279;Laerm;7458;49.002;8.472;2023-11-19T12:10:54;49.12;43.34;67.34;;
37279;Laerm;7458;49.002;8.472;2023-11-19T12:13:24;48.88;43.49;68.79;;
37279;Laerm;7458;49.002;8.472;2023-11-19T12:18:31;58.90;44.73;78.50;;
37279;Laerm;7458;49.002;8.472;2023-11-19T12:21:01;55.27;43.99;73.34;;
37279;Laerm;7458;49.002;8.472;2023-11-19T12:23:31;54.20;44.43;69.33;;
37279;Laerm;7458;49.002;8.472;2023-11-19T12:25:58;56.58;45.51;77.11;;
37279;Laerm;7458;49.002;8.472;2023-11-19T12:28:24;52.89;44.07;68.02;;
37279;Laerm;7458;49.002;8.472;2023-11-19T12:30:53;54.59;43.77;74.46;;
37279;Laerm;7458;49.002;8.472;2023-11-19T12:33:19;52.89;45.11;69.33;;
37279;Laerm;7458;49.002;8.472;2023-11-19T12:35:47;53.33;44.27;70.01;;
37279;Laerm;7458;49.002;8.472;2023-11-19T12:38:24;57.72;44.51;73.38;;
37279;Laerm;7458;49.002;8.472;2023-11-19T12:41:07;55.11;43.77;70.75;;
37279;Laerm;7458;49.002;8.472;2023-11-19T12:43:34;57.39;44.31;72.77;;
37279;Laerm;7458;49.002;8.472;2023-11-19T12:46:00;57.58;43.72;78.84;;
37279;Laerm;7458;49.002;8.472;2023-11-19T12:48:26;53.11;43.63;68.39;;
37279;Laerm;7458;49.002;8.472;2023-11-19T12:50:58;54.92;44.03;73.24;;
37279;Laerm;7458;49.002;8.472;2023-11-19T12:53:26;55.42;44.31;66.37;;
37279;Laerm;7458;49.002;8.472;2023-11-19T12:55:53;57.45;43.81;79.35;;
37279;Laerm;7458;49.002;8.472;2023-11-19T12:58:35;55.97;43.68;80.98;;
37279;Laerm;7458;49.002;8.472;2023-11-19T13:01:06;53.26;43.99;83.03;;
37279;Laerm;7458;49.002;8.472;2023-11-19T13:03:35;53.44;45.04;70.01;;
37279;Laerm;7458;49.002;8.472;2023-11-19T13:06:21;53.87;45.30;69.41;;
37279;Laerm;7458;49.002;8.472;2023-11-19T13:08:49;57.55;45.33;71.29;;
37279;Laerm;7458;49.002;8.472;2023-11-19T13:11:35;54.26;44.51;71.34;;
37279;Laerm;7458;49.002;8.472;2023-11-19T13:14:05;54.84;43.99;70.32;;
37279;Laerm;7458;49.002;8.472;2023-11-19T13:16:37;55.94;45.30;72.34;;
37279;Laerm;7458;49.002;8.472;2023-11-19T13:19:03;57.70;44.83;75.18;;
37279;Laerm;7458;49.002;8.472;2023-11-19T13:21:29;57.84;44.51;78.23;;
37279;Laerm;7458;49.002;8.472;2023-11-19T13:23:56;55.35;44.65;75.01;;
37279;Laerm;7458;49.002;8.472;2023-11-19T13:26:23;55.22;43.94;72.57;;
37279;Laerm;7458;49.002;8.472;2023-11-19T13:28:49;55.49;44.54;72.22;;
37279;Laerm;7458;49.002;8.472;2023-11-19T13:31:15;57.86;53.88;67.40;;
37279;Laerm;7458;49.002;8.472;2023-11-19T13:33:42;59.00;53.48;72.32;;
37279;Laerm;7458;49.002;8.472;2023-11-19T13:36:09;58.12;45.51;81.80;;
37279;Laerm;7458;49.002;8.472;2023-11-19T13:38:35;51.14;44.56;63.14;;
37279;Laerm;7458;49.002;8.472;2023-11-19T13:41:03;56.21;46.15;77.76;;
37279;Laerm;7458;49.002;8.472;2023-11-19T13:43:30;58.68;46.30;72.44;;
37279;Laerm;7458;49.002;8.472;2023-11-19T13:45:57;55.59;46.61;70.19;;
37279;Laerm;7458;49.002;8.472;2023-11-19T13:48:26;52.84;44.15;68.90;;
37279;Laerm;7458;49.002;8.472;2023-11-19T13:50:55;53.60;44.39;68.51;;
37279;Laerm;7458;49.002;8.472;2023-11-19T13:53:22;56.31;45.51;70.15;;
37279;Laerm;7458;49.002;8.472;2023-11-19T13:55:49;58.97;44.39;73.70;;
37279;Laerm;7458;49.002;8.472;2023-11-19T13:58:16;59.25;45.60;76.54;;
37279;Laerm;7458;49.002;8.472;2023-11-19T14:00:42;57.54;45.20;73.58;;
37279;Laerm;7458;49.002;8.472;2023-11-19T14:03:09;56.01;45.63;74.01;;
37279;Laerm;7458;49.002;8.472;2023-11-19T14:05:39;56.01;45.33;76.14;;
37279;Laerm;7458;49.002;8.472;2023-11-19T14:08:07;55.65;45.20;72.96;;
37279;Laerm;7458;49.002;8.472;2023-11-19T14:10:38;59.10;45.39;79.37;;
37279;Laerm;7458;49.002;8.472;2023-11-19T14:13:06;53.80;45.63;67.15;;
37279;Laerm;7458;49.002;8.472;2023-11-19T14:15:32;57.61;44.87;74.54;;
37279;Laerm;7458;49.002;8.472;2023-11-19T14:17:58;58.93;46.59;74.61;;
37279;Laerm;7458;49.002;8.472;2023-11-19T14:20:24;55.86;45.30;67.46;;